createdAt,value
2019-04-06T00:00:15.163Z,19.85
2019-04-06T00:00:46.450Z,19.77
2019-04-06T00:01:17.650Z,22.93
2019-04-06T00:01:48.851Z,20.80
2019-04-06T00:02:20.108Z,20.57
2019-04-06T00:02:51.344Z,20.95
2019-04-06T00:03:22.569Z,22.02
2019-04-06T00:03:53.870Z,21.00
2019-04-06T00:04:25.147Z,24.02
2019-04-06T00:04:56.479Z,19.98
2019-04-06T00:05:27.718Z,19.73
2019-04-06T00:05:59.007Z,19.45
2019-04-06T00:06:30.314Z,20.92
2019-04-06T00:07:01.588Z,23.95
2019-04-06T00:07:32.913Z,21.05
2019-04-06T00:08:04.178Z,22.30
2019-04-06T00:08:35.381Z,21.75
2019-04-06T00:09:06.660Z,23.35
2019-04-06T00:09:37.922Z,21.35
2019-04-06T00:10:09.168Z,21.73
2019-04-06T00:10:40.422Z,23.25
2019-04-06T00:11:11.656Z,20.75
2019-04-06T00:11:42.855Z,20.65
2019-04-06T00:12:14.096Z,22.80
2019-04-06T00:12:45.341Z,21.48
2019-04-06T00:13:16.573Z,22.80
2019-04-06T00:13:47.817Z,24.95
2019-04-06T00:14:19.125Z,21.68
2019-04-06T00:14:50.429Z,22.52
2019-04-06T00:15:21.685Z,23.38
2019-04-06T00:15:52.889Z,20.70
2019-04-06T00:16:24.158Z,21.07
2019-04-06T00:16:55.441Z,20.88
2019-04-06T00:17:28.722Z,22.37
2019-04-06T00:18:00.833Z,22.42
2019-04-06T00:18:32.119Z,21.00
2019-04-06T00:19:03.415Z,21.97
2019-04-06T00:19:34.668Z,25.15
2019-04-06T00:20:05.888Z,21.68
2019-04-06T00:20:37.094Z,25.20
2019-04-06T00:21:08.371Z,21.52
2019-04-06T00:21:39.671Z,21.93
2019-04-06T00:22:11.889Z,26.55
2019-04-06T00:22:43.071Z,23.45
2019-04-06T00:23:14.288Z,22.22
2019-04-06T00:23:48.335Z,20.20
2019-04-06T00:24:19.576Z,22.22
2019-04-06T00:24:50.876Z,22.05
2019-04-06T00:25:22.132Z,21.85
2019-04-06T00:25:55.767Z,20.75
2019-04-06T00:26:27.053Z,21.80
2019-04-06T00:26:58.327Z,20.45
2019-04-06T00:27:29.550Z,24.23
2019-04-06T00:28:00.868Z,24.07
2019-04-06T00:28:32.179Z,24.00
2019-04-06T00:29:03.409Z,22.25
2019-04-06T00:29:34.684Z,24.52
2019-04-06T00:30:05.998Z,21.27
2019-04-06T00:30:37.259Z,23.30
2019-04-06T00:31:08.555Z,20.80
2019-04-06T00:31:39.855Z,20.90
2019-04-06T00:32:11.238Z,25.40
2019-04-06T00:32:45.165Z,21.70
2019-04-06T00:33:16.398Z,20.68
2019-04-06T00:33:47.694Z,20.05
2019-04-06T00:34:21.745Z,22.13
2019-04-06T00:34:53.056Z,22.52
2019-04-06T00:35:24.356Z,21.45
2019-04-06T00:35:55.697Z,22.80
2019-04-06T00:36:29.843Z,26.30
2019-04-06T00:37:01.084Z,26.60
2019-04-06T00:37:32.337Z,21.60
2019-04-06T00:38:03.657Z,21.65
2019-04-06T00:38:34.944Z,21.85
2019-04-06T00:39:06.157Z,22.02
2019-04-06T00:39:37.400Z,24.37
2019-04-06T00:40:08.591Z,22.07
2019-04-06T00:40:39.889Z,24.32
2019-04-06T00:41:11.180Z,20.88
2019-04-06T00:41:42.420Z,20.92
2019-04-06T00:42:13.659Z,21.70
2019-04-06T00:42:44.893Z,22.35
2019-04-06T00:43:16.133Z,21.65
2019-04-06T00:43:47.430Z,22.55
2019-04-06T00:44:18.809Z,24.20
2019-04-06T00:44:50.185Z,23.12
2019-04-06T00:45:21.463Z,21.70
2019-04-06T00:45:52.833Z,22.93
2019-04-06T00:46:24.126Z,21.17
2019-04-06T00:46:55.356Z,21.82
2019-04-06T00:47:26.654Z,20.68
2019-04-06T00:47:57.934Z,22.42
2019-04-06T00:48:29.192Z,21.82
2019-04-06T00:49:00.432Z,23.40
2019-04-06T00:49:31.699Z,22.40
2019-04-06T00:50:02.888Z,23.35
2019-04-06T00:50:34.532Z,22.67
2019-04-06T00:51:05.771Z,20.25
2019-04-06T00:51:37.001Z,20.35
2019-04-06T00:52:08.224Z,21.68
2019-04-06T00:52:39.461Z,20.27
2019-04-06T00:53:13.732Z,23.30
2019-04-06T00:53:44.969Z,19.95
2019-04-06T00:54:17.129Z,21.90
2019-04-06T00:54:48.616Z,20.75
2019-04-06T00:55:19.911Z,21.25
2019-04-06T00:55:55.969Z,23.07
2019-04-06T00:56:24.051Z,20.90
2019-04-06T00:56:55.338Z,21.10
2019-04-06T00:57:26.597Z,21.05
2019-04-06T00:57:57.954Z,20.48
2019-04-06T00:58:29.229Z,21.25
2019-04-06T00:59:03.304Z,21.82
2019-04-06T00:59:34.722Z,21.37
2019-04-06T01:00:06.061Z,21.23
2019-04-06T01:00:37.306Z,20.77
2019-04-06T01:01:10.891Z,22.60
2019-04-06T01:01:43.045Z,20.85
2019-04-06T01:02:14.332Z,20.82
2019-04-06T01:02:45.550Z,20.32
2019-04-06T01:03:16.804Z,22.22
2019-04-06T01:03:48.079Z,21.40
2019-04-06T01:04:19.293Z,21.85
2019-04-06T01:04:50.540Z,22.42
2019-04-06T01:05:21.811Z,19.00
2019-04-06T01:05:53.173Z,18.57
2019-04-06T01:06:24.434Z,20.23
2019-04-06T01:06:55.649Z,20.12
2019-04-06T01:07:26.862Z,19.65
2019-04-06T01:07:58.181Z,21.33
2019-04-06T01:08:29.365Z,20.05
2019-04-06T01:09:00.655Z,20.80
2019-04-06T01:09:31.893Z,19.57
2019-04-06T01:10:03.159Z,21.17
2019-04-06T01:10:34.544Z,21.00
2019-04-06T01:11:05.789Z,19.07
2019-04-06T01:11:37.144Z,20.15
2019-04-06T01:12:08.402Z,22.00
2019-04-06T01:12:39.675Z,20.15
2019-04-06T01:13:13.226Z,19.42
2019-04-06T01:13:44.533Z,21.68
2019-04-06T01:14:15.951Z,22.20
2019-04-06T01:14:47.179Z,23.27
2019-04-06T01:15:18.446Z,20.50
2019-04-06T01:15:49.776Z,22.02
2019-04-06T01:16:21.037Z,18.90
2019-04-06T01:16:52.257Z,18.95
2019-04-06T01:17:23.541Z,22.35
2019-04-06T01:17:54.742Z,20.90
2019-04-06T01:18:26.041Z,19.25
2019-04-06T01:18:57.361Z,21.57
2019-04-06T01:19:28.824Z,21.73
2019-04-06T01:20:00.252Z,20.97
2019-04-06T01:20:33.294Z,22.77
2019-04-06T01:21:04.596Z,24.98
2019-04-06T01:21:35.900Z,21.80
2019-04-06T01:22:07.139Z,21.73
2019-04-06T01:22:38.452Z,21.85
2019-04-06T01:23:09.630Z,21.45
2019-04-06T01:23:40.867Z,24.00
2019-04-06T01:24:12.153Z,24.25
2019-04-06T01:24:43.373Z,20.97
2019-04-06T01:25:14.628Z,22.10
2019-04-06T01:25:47.862Z,23.10
2019-04-06T01:26:19.179Z,20.08
2019-04-06T01:26:50.399Z,20.20
2019-04-06T01:27:21.703Z,20.90
2019-04-06T01:27:52.941Z,23.05
2019-04-06T01:28:24.184Z,22.95
2019-04-06T01:28:55.472Z,19.05
2019-04-06T01:29:26.809Z,18.98
2019-04-06T01:29:58.068Z,21.42
2019-04-06T01:30:29.420Z,23.38
2019-04-06T01:31:00.770Z,22.30
2019-04-06T01:31:32.012Z,19.92
2019-04-06T01:32:03.311Z,21.17
2019-04-06T01:32:34.703Z,21.73
2019-04-06T01:33:06.007Z,21.40
2019-04-06T01:33:37.297Z,21.12
2019-04-06T01:34:08.558Z,22.35
2019-04-06T01:34:39.931Z,24.12
2019-04-06T01:35:13.015Z,23.62
2019-04-06T01:35:44.307Z,20.48
2019-04-06T01:36:15.625Z,21.68
2019-04-06T01:36:46.965Z,21.37
2019-04-06T01:37:18.291Z,23.52
2019-04-06T01:37:49.618Z,21.90
2019-04-06T01:38:23.806Z,23.30
2019-04-06T01:38:56.268Z,21.42
2019-04-06T01:39:27.565Z,22.05
2019-04-06T01:40:01.661Z,23.22
2019-04-06T01:40:32.942Z,23.47
2019-04-06T01:41:04.234Z,23.70
2019-04-06T01:41:35.526Z,28.57
2019-04-06T01:42:06.842Z,26.95
2019-04-06T01:42:38.149Z,23.27
2019-04-06T01:43:09.390Z,22.37
2019-04-06T01:43:40.724Z,25.90
2019-04-06T01:44:11.996Z,23.55
2019-04-06T01:44:43.249Z,20.52
2019-04-06T01:45:14.590Z,21.68
2019-04-06T01:45:45.804Z,23.18
2019-04-06T01:46:18.421Z,22.67
2019-04-06T01:46:49.688Z,25.62
2019-04-06T01:47:21.007Z,24.23
2019-04-06T01:47:55.015Z,23.92
2019-04-06T01:48:26.367Z,24.85
2019-04-06T01:48:57.605Z,20.70
2019-04-06T01:49:28.888Z,26.48
2019-04-06T01:50:00.200Z,23.07
2019-04-06T01:50:31.441Z,24.35
2019-04-06T01:51:02.671Z,24.20
2019-04-06T01:51:33.898Z,24.40
2019-04-06T01:52:05.136Z,24.00
2019-04-06T01:52:39.453Z,21.52
2019-04-06T01:53:10.810Z,21.52
2019-04-06T01:53:42.101Z,20.77
2019-04-06T01:54:13.344Z,22.00
2019-04-06T01:54:44.647Z,20.77
2019-04-06T01:55:16.600Z,22.60
2019-04-06T01:55:48.091Z,22.60
2019-04-06T01:56:19.786Z,19.87
2019-04-06T01:56:51.075Z,23.65
2019-04-06T01:57:22.335Z,22.77
2019-04-06T01:57:53.541Z,23.60
2019-04-06T01:58:24.757Z,20.48
2019-04-06T01:58:56.178Z,22.27
2019-04-06T01:59:27.487Z,20.95
2019-04-06T01:59:58.727Z,23.40
2019-04-06T02:00:29.975Z,20.70
2019-04-06T02:01:01.258Z,20.65
2019-04-06T02:01:32.517Z,23.38
2019-04-06T02:02:03.802Z,20.70
2019-04-06T02:02:35.046Z,20.10
2019-04-06T02:03:06.283Z,22.20
2019-04-06T02:03:37.587Z,22.25
2019-04-06T02:04:08.901Z,22.87
2019-04-06T02:04:40.298Z,23.70
2019-04-06T02:05:11.480Z,20.55
2019-04-06T02:05:42.713Z,23.92
2019-04-06T02:06:13.995Z,20.20
2019-04-06T02:06:45.393Z,19.27
2019-04-06T02:07:16.706Z,24.00
2019-04-06T02:07:47.994Z,21.12
2019-04-06T02:08:19.230Z,21.12
2019-04-06T02:08:50.513Z,24.65
2019-04-06T02:09:21.872Z,22.50
2019-04-06T02:09:53.110Z,22.27
2019-04-06T02:10:24.322Z,22.67
2019-04-06T02:10:55.617Z,20.43
2019-04-06T02:11:26.923Z,18.42
2019-04-06T02:11:58.136Z,23.10
2019-04-06T02:12:29.436Z,21.12
2019-04-06T02:13:00.687Z,18.27
2019-04-06T02:13:32.055Z,18.62
2019-04-06T02:14:03.368Z,18.80
2019-04-06T02:14:34.630Z,18.82
2019-04-06T02:15:05.879Z,17.77
2019-04-06T02:15:37.179Z,19.70
2019-04-06T02:16:08.456Z,18.40
2019-04-06T02:16:39.748Z,18.32
2019-04-06T02:17:10.967Z,19.02
2019-04-06T02:17:42.213Z,17.65
2019-04-06T02:18:13.520Z,20.75
2019-04-06T02:18:44.730Z,18.40
2019-04-06T02:19:16.000Z,19.90
2019-04-06T02:19:47.272Z,19.87
2019-04-06T02:20:18.525Z,20.08
2019-04-06T02:20:49.823Z,18.90
2019-04-06T02:21:21.035Z,18.62
2019-04-06T02:21:52.284Z,17.95
2019-04-06T02:22:23.587Z,19.60
2019-04-06T02:22:54.786Z,20.55
2019-04-06T02:23:26.036Z,19.17
2019-04-06T02:23:57.339Z,19.57
2019-04-06T02:24:28.668Z,21.02
2019-04-06T02:24:59.976Z,23.22
2019-04-06T02:25:31.287Z,19.17
2019-04-06T02:26:02.659Z,20.57
2019-04-06T02:26:35.143Z,20.77
2019-04-06T02:27:06.408Z,22.30
2019-04-06T02:27:40.700Z,21.77
2019-04-06T02:28:11.967Z,20.02
2019-04-06T02:28:43.190Z,20.32
2019-04-06T02:29:14.379Z,17.87
2019-04-06T02:29:45.661Z,17.42
2019-04-06T02:30:16.973Z,18.02
2019-04-06T02:30:48.266Z,17.92
2019-04-06T02:31:19.473Z,19.42
2019-04-06T02:31:50.680Z,17.48
2019-04-06T02:32:21.951Z,20.77
2019-04-06T02:32:53.220Z,18.57
2019-04-06T02:33:24.621Z,17.30
2019-04-06T02:33:56.099Z,18.15
2019-04-06T02:34:27.337Z,16.37
2019-04-06T02:34:58.590Z,17.75
2019-04-06T02:35:29.863Z,21.60
2019-04-06T02:36:01.201Z,20.25
2019-04-06T02:36:32.548Z,19.37
2019-04-06T02:37:03.813Z,18.67
2019-04-06T02:37:35.045Z,20.08
2019-04-06T02:38:06.478Z,19.15
2019-04-06T02:38:37.804Z,20.40
2019-04-06T02:39:09.101Z,22.27
2019-04-06T02:39:42.123Z,17.32
2019-04-06T02:40:13.495Z,17.52
2019-04-06T02:40:44.788Z,17.77
2019-04-06T02:41:16.086Z,18.65
2019-04-06T02:41:47.348Z,18.77
2019-04-06T02:42:18.637Z,21.27
2019-04-06T02:42:49.876Z,18.67
2019-04-06T02:43:21.191Z,18.15
2019-04-06T02:43:52.658Z,17.62
2019-04-06T02:44:25.022Z,19.65
2019-04-06T02:44:56.307Z,18.02
2019-04-06T02:45:27.593Z,17.57
2019-04-06T02:45:58.799Z,18.67
2019-04-06T02:46:31.148Z,17.12
2019-04-06T02:47:02.638Z,19.27
2019-04-06T02:47:33.925Z,20.27
2019-04-06T02:48:05.229Z,20.27
2019-04-06T02:48:36.551Z,16.27
2019-04-06T02:49:08.057Z,16.87
2019-04-06T02:49:39.375Z,19.27
2019-04-06T02:50:10.629Z,18.52
2019-04-06T02:50:41.918Z,19.95
2019-04-06T02:51:13.306Z,18.27
2019-04-06T02:51:44.664Z,18.52
2019-04-06T02:52:15.933Z,18.87
2019-04-06T02:52:47.154Z,18.05
2019-04-06T02:53:18.452Z,19.55
2019-04-06T02:53:51.734Z,19.12
2019-04-06T02:54:22.645Z,18.00
2019-04-06T02:54:53.935Z,18.73
2019-04-06T02:55:25.198Z,17.87
2019-04-06T02:55:56.440Z,18.62
2019-04-06T02:56:27.765Z,19.40
2019-04-06T02:56:59.027Z,17.75
2019-04-06T02:57:30.681Z,17.75
2019-04-06T02:58:01.946Z,19.50
2019-04-06T02:58:33.179Z,19.92
2019-04-06T02:59:04.660Z,20.20
2019-04-06T02:59:35.954Z,20.32
2019-04-06T03:00:07.204Z,21.97
2019-04-06T03:00:38.568Z,23.30
2019-04-06T03:01:09.824Z,22.48
2019-04-06T03:01:41.061Z,19.52
2019-04-06T03:02:12.368Z,19.12
2019-04-06T03:02:43.676Z,20.23
2019-04-06T03:03:14.946Z,20.50
2019-04-06T03:03:46.198Z,19.55
2019-04-06T03:04:17.563Z,17.73
2019-04-06T03:04:48.947Z,21.12
2019-04-06T03:05:20.204Z,19.40
2019-04-06T03:05:51.452Z,19.50
2019-04-06T03:06:22.753Z,19.30
2019-04-06T03:06:54.038Z,19.75
2019-04-06T03:07:25.431Z,19.30
2019-04-06T03:07:56.704Z,20.65
2019-04-06T03:08:27.997Z,21.60
2019-04-06T03:08:59.185Z,20.97
2019-04-06T03:09:30.441Z,21.80
2019-04-06T03:10:02.961Z,21.50
2019-04-06T03:10:34.204Z,22.25
2019-04-06T03:11:05.481Z,22.73
2019-04-06T03:11:39.467Z,19.85
2019-04-06T03:12:10.751Z,22.77
2019-04-06T03:12:42.026Z,20.77
2019-04-06T03:13:13.303Z,19.40
2019-04-06T03:13:44.689Z,20.68
2019-04-06T03:14:15.904Z,21.17
2019-04-06T03:14:47.137Z,23.42
2019-04-06T03:15:20.092Z,20.60
2019-04-06T03:15:51.364Z,21.35
2019-04-06T03:16:22.646Z,21.73
2019-04-06T03:16:56.596Z,22.15
2019-04-06T03:17:27.925Z,23.80
2019-04-06T03:17:59.286Z,19.35
2019-04-06T03:18:30.627Z,18.15
2019-04-06T03:19:02.832Z,19.87
2019-04-06T03:19:34.127Z,18.75
2019-04-06T03:20:05.375Z,20.85
2019-04-06T03:20:36.703Z,21.57
2019-04-06T03:21:07.975Z,20.90
2019-04-06T03:21:39.242Z,20.60
2019-04-06T03:22:10.515Z,22.45
2019-04-06T03:22:41.869Z,22.87
2019-04-06T03:23:13.121Z,20.55
2019-04-06T03:23:51.240Z,23.10
2019-04-06T03:24:17.419Z,24.90
2019-04-06T03:24:48.724Z,21.12
2019-04-06T03:25:20.153Z,20.37
2019-04-06T03:25:51.441Z,21.40
2019-04-06T03:26:22.743Z,24.70
2019-04-06T03:27:01.961Z,23.57
2019-04-06T03:27:26.895Z,23.07
2019-04-06T03:27:58.303Z,24.35
2019-04-06T03:28:29.575Z,22.95
2019-04-06T03:29:00.885Z,22.15
2019-04-06T03:29:32.097Z,21.57
2019-04-06T03:30:03.614Z,20.05
2019-04-06T03:30:34.881Z,18.27
2019-04-06T03:31:06.166Z,24.27
2019-04-06T03:31:37.359Z,19.52
2019-04-06T03:32:08.693Z,22.30
2019-04-06T03:32:40.351Z,18.23
2019-04-06T03:33:11.738Z,18.50
2019-04-06T03:33:43.213Z,22.60
2019-04-06T03:34:20.003Z,20.90
2019-04-06T03:34:47.668Z,21.52
2019-04-06T03:35:21.252Z,22.35
2019-04-06T03:35:52.685Z,19.57
2019-04-06T03:36:24.168Z,22.93
2019-04-06T03:36:55.444Z,20.88
2019-04-06T03:37:26.670Z,20.45
2019-04-06T03:37:57.888Z,19.95
2019-04-06T03:38:29.340Z,19.12
2019-04-06T03:39:00.668Z,18.00
2019-04-06T03:39:31.931Z,22.90
2019-04-06T03:40:03.198Z,21.52
2019-04-06T03:40:34.540Z,21.80
2019-04-06T03:41:05.801Z,19.95
2019-04-06T03:41:37.066Z,20.12
2019-04-06T03:42:10.636Z,22.20
2019-04-06T03:42:41.415Z,22.85
2019-04-06T03:43:12.651Z,23.40
2019-04-06T03:43:43.895Z,24.72
2019-04-06T03:44:15.290Z,23.92
2019-04-06T03:44:46.461Z,22.98
2019-04-06T03:45:17.721Z,23.52
2019-04-06T03:45:48.955Z,23.77
2019-04-06T03:46:20.348Z,22.90
2019-04-06T03:46:51.611Z,22.48
2019-04-06T03:47:22.855Z,23.42
2019-04-06T03:47:54.087Z,24.63
2019-04-06T03:48:28.163Z,21.82
2019-04-06T03:48:59.768Z,23.12
2019-04-06T03:49:31.087Z,22.22
2019-04-06T03:50:02.412Z,21.62
2019-04-06T03:50:33.636Z,21.37
2019-04-06T03:51:04.937Z,19.07
2019-04-06T03:51:36.321Z,19.67
2019-04-06T03:52:07.570Z,22.65
2019-04-06T03:52:38.834Z,24.75
2019-04-06T03:53:10.184Z,20.77
2019-04-06T03:53:41.425Z,23.10
2019-04-06T03:54:12.721Z,22.20
2019-04-06T03:54:44.045Z,18.98
2019-04-06T03:55:15.301Z,19.77
2019-04-06T03:55:49.527Z,19.48
2019-04-06T03:56:21.070Z,21.37
2019-04-06T03:56:52.329Z,23.60
2019-04-06T03:57:23.552Z,21.50
2019-04-06T03:57:54.811Z,26.15
2019-04-06T03:58:26.155Z,23.25
2019-04-06T03:58:57.543Z,22.35
2019-04-06T03:59:28.935Z,25.43
2019-04-06T04:00:00.193Z,24.87
2019-04-06T04:00:31.572Z,22.87
2019-04-06T04:01:02.950Z,20.60
2019-04-06T04:01:34.315Z,20.20
2019-04-06T04:02:05.658Z,22.50
2019-04-06T04:02:36.960Z,23.60
2019-04-06T04:03:08.392Z,23.05
2019-04-06T04:03:39.677Z,25.90
2019-04-06T04:04:11.033Z,25.43
2019-04-06T04:04:42.372Z,21.40
2019-04-06T04:05:13.695Z,19.23
2019-04-06T04:05:44.949Z,22.20
2019-04-06T04:06:16.210Z,20.85
2019-04-06T04:06:47.468Z,21.20
2019-04-06T04:07:19.088Z,22.70
2019-04-06T04:07:53.365Z,20.70
2019-04-06T04:08:24.767Z,20.43
2019-04-06T04:08:56.067Z,22.20
2019-04-06T04:09:27.319Z,19.15
2019-04-06T04:09:58.658Z,20.62
2019-04-06T04:10:29.998Z,23.98
2019-04-06T04:11:01.561Z,19.15
2019-04-06T04:11:33.231Z,20.75
2019-04-06T04:12:04.483Z,19.17
2019-04-06T04:12:35.845Z,20.37
2019-04-06T04:13:07.144Z,20.85
2019-04-06T04:13:38.781Z,21.93
2019-04-06T04:14:11.278Z,22.25
2019-04-06T04:14:42.587Z,23.57
2019-04-06T04:15:15.126Z,25.45
2019-04-06T04:15:46.453Z,23.38
2019-04-06T04:16:17.843Z,26.30
2019-04-06T04:16:49.119Z,24.40
2019-04-06T04:17:20.517Z,24.95
2019-04-06T04:17:51.813Z,23.50
2019-04-06T04:18:23.118Z,23.05
2019-04-06T04:18:57.124Z,21.93
2019-04-06T04:19:28.561Z,27.00
2019-04-06T04:19:59.943Z,28.40
2019-04-06T04:20:31.249Z,22.37
2019-04-06T04:21:02.587Z,27.93
2019-04-06T04:21:33.933Z,24.27
2019-04-06T04:22:05.205Z,24.12
2019-04-06T04:22:36.572Z,23.02
2019-04-06T04:23:07.911Z,26.17
2019-04-06T04:23:39.234Z,25.02
2019-04-06T04:24:10.509Z,21.33
2019-04-06T04:24:41.798Z,21.35
2019-04-06T04:25:13.061Z,23.65
2019-04-06T04:25:44.505Z,23.60
2019-04-06T04:26:15.901Z,22.82
2019-04-06T04:26:47.179Z,23.67
2019-04-06T04:27:28.287Z,24.77
2019-04-06T04:27:51.425Z,24.20
2019-04-06T04:28:22.815Z,21.00
2019-04-06T04:28:56.204Z,24.98
2019-04-06T04:29:27.178Z,25.23
2019-04-06T04:29:58.537Z,22.20
2019-04-06T04:30:33.388Z,24.30
2019-04-06T04:31:03.094Z,24.00
2019-04-06T04:31:34.457Z,24.70
2019-04-06T04:32:05.698Z,20.55
2019-04-06T04:32:36.975Z,24.65
2019-04-06T04:33:08.257Z,21.07
2019-04-06T04:33:39.564Z,23.52
2019-04-06T04:34:10.890Z,28.12
2019-04-06T04:34:42.195Z,25.88
2019-04-06T04:35:13.472Z,27.58
2019-04-06T04:35:44.733Z,25.65
2019-04-06T04:36:16.054Z,25.15
2019-04-06T04:36:47.350Z,26.00
2019-04-06T04:37:20.702Z,25.52
2019-04-06T04:37:52.011Z,26.85
2019-04-06T04:38:23.329Z,25.35
2019-04-06T04:38:54.721Z,27.13
2019-04-06T04:39:26.065Z,26.25
2019-04-06T04:39:57.317Z,30.48
2019-04-06T04:40:31.112Z,25.85
2019-04-06T04:41:02.418Z,27.00
2019-04-06T04:41:33.929Z,28.73
2019-04-06T04:42:05.234Z,25.17
2019-04-06T04:42:36.634Z,25.57
2019-04-06T04:43:07.945Z,25.25
2019-04-06T04:43:39.246Z,26.48
2019-04-06T04:44:10.597Z,26.20
2019-04-06T04:44:41.973Z,28.35
2019-04-06T04:45:13.451Z,26.75
2019-04-06T04:45:45.010Z,25.43
2019-04-06T04:46:18.294Z,25.32
2019-04-06T04:46:50.491Z,25.50
2019-04-06T04:47:21.767Z,24.77
2019-04-06T04:47:52.983Z,28.57
2019-04-06T04:48:24.298Z,24.85
2019-04-06T04:48:57.109Z,27.98
2019-04-06T04:49:31.247Z,24.57
2019-04-06T04:50:02.554Z,29.50
2019-04-06T04:50:33.823Z,26.95
2019-04-06T04:51:05.186Z,25.35
2019-04-06T04:51:39.571Z,28.62
2019-04-06T04:52:13.637Z,32.67
2019-04-06T04:52:47.333Z,33.02
2019-04-06T04:53:18.644Z,29.77
2019-04-06T04:53:50.059Z,30.20
2019-04-06T04:54:22.638Z,29.87
2019-04-06T04:54:58.414Z,31.23
2019-04-06T04:55:29.733Z,29.85
2019-04-06T04:56:02.811Z,29.25
2019-04-06T04:56:34.207Z,32.30
2019-04-06T04:57:05.523Z,29.75
2019-04-06T04:57:41.261Z,27.45
2019-04-06T04:58:09.845Z,31.70
2019-04-06T04:58:41.173Z,33.20
2019-04-06T04:59:14.443Z,30.12
2019-04-06T04:59:45.731Z,30.48
2019-04-06T05:00:17.009Z,28.25
2019-04-06T05:00:48.351Z,28.05
2019-04-06T05:01:19.660Z,30.05
2019-04-06T05:01:52.894Z,31.45
2019-04-06T05:02:26.260Z,30.30
2019-04-06T05:02:57.565Z,30.52
2019-04-06T05:03:28.912Z,30.50
2019-04-06T05:04:00.245Z,29.52
2019-04-06T05:04:31.496Z,30.68
2019-04-06T05:05:02.771Z,29.67
2019-04-06T05:05:34.160Z,26.62
2019-04-06T05:06:05.457Z,28.35
2019-04-06T05:06:36.788Z,31.87
2019-04-06T05:07:08.058Z,27.65
2019-04-06T05:07:39.449Z,28.27
2019-04-06T05:08:10.686Z,26.77
2019-04-06T05:08:41.991Z,27.75
2019-04-06T05:09:13.230Z,29.87
2019-04-06T05:09:44.708Z,27.55
2019-04-06T05:10:16.067Z,29.98
2019-04-06T05:10:47.365Z,30.77
2019-04-06T05:11:19.676Z,31.05
2019-04-06T05:11:52.769Z,31.48
2019-04-06T05:12:24.000Z,28.62
2019-04-06T05:12:55.266Z,32.50
2019-04-06T05:13:26.506Z,31.97
2019-04-06T05:14:00.812Z,31.65
2019-04-06T05:14:34.259Z,32.70
2019-04-06T05:15:09.482Z,32.23
2019-04-06T05:15:40.703Z,32.63
2019-04-06T05:16:12.159Z,33.95
2019-04-06T05:16:49.318Z,32.45
2019-04-06T05:17:20.527Z,33.13
2019-04-06T05:17:51.835Z,32.88
2019-04-06T05:18:23.145Z,29.23
2019-04-06T05:18:56.919Z,29.32
2019-04-06T05:19:43.042Z,27.80
2019-04-06T05:20:14.325Z,30.12
2019-04-06T05:20:45.592Z,33.05
2019-04-06T05:21:19.268Z,26.02
2019-04-06T05:21:50.575Z,25.20
2019-04-06T05:22:21.789Z,25.62
2019-04-06T05:22:56.449Z,26.68
2019-04-06T05:23:27.786Z,26.07
2019-04-06T05:24:04.177Z,27.00
2019-04-06T05:24:35.027Z,24.70
2019-04-06T05:25:08.188Z,26.33
2019-04-06T05:25:39.515Z,28.07
2019-04-06T05:26:12.810Z,25.43
2019-04-06T05:26:46.890Z,26.87
2019-04-06T05:27:18.246Z,25.72
2019-04-06T05:27:52.714Z,23.98
2019-04-06T05:28:22.479Z,26.02
2019-04-06T05:28:53.751Z,25.32
2019-04-06T05:29:25.013Z,29.02
2019-04-06T05:29:56.491Z,28.40
2019-04-06T05:30:27.750Z,26.48
2019-04-06T05:31:07.768Z,29.07
2019-04-06T05:31:39.337Z,25.30
2019-04-06T05:32:10.619Z,30.37
2019-04-06T05:32:44.259Z,23.52
2019-04-06T05:33:15.527Z,24.47
2019-04-06T05:33:46.775Z,22.10
2019-04-06T05:34:18.012Z,24.80
2019-04-06T05:34:49.285Z,27.82
2019-04-06T05:35:20.647Z,28.75
2019-04-06T05:35:51.944Z,29.57
2019-04-06T05:36:23.329Z,27.20
2019-04-06T05:36:54.751Z,28.55
2019-04-06T05:37:26.024Z,25.30
2019-04-06T05:37:57.442Z,27.70
2019-04-06T05:38:28.793Z,28.20
2019-04-06T05:39:00.069Z,28.15
2019-04-06T05:39:31.468Z,29.07
2019-04-06T05:40:02.725Z,27.13
2019-04-06T05:40:34.017Z,30.62
2019-04-06T05:41:05.288Z,28.00
2019-04-06T05:41:36.573Z,29.25
2019-04-06T05:42:07.858Z,30.55
2019-04-06T05:42:40.797Z,30.77
2019-04-06T05:43:12.076Z,30.65
2019-04-06T05:43:43.363Z,30.40
2019-04-06T05:44:14.622Z,33.05
2019-04-06T05:44:45.909Z,32.10
2019-04-06T05:45:17.197Z,30.92
2019-04-06T05:45:48.445Z,32.80
2019-04-06T05:46:19.725Z,33.20
2019-04-06T05:46:51.022Z,30.23
2019-04-06T05:47:22.365Z,32.28
2019-04-06T05:47:53.652Z,26.85
2019-04-06T05:48:25.029Z,28.12
2019-04-06T05:48:59.208Z,28.80
2019-04-06T05:49:30.692Z,23.92
2019-04-06T05:50:02.053Z,30.77
2019-04-06T05:50:33.421Z,26.25
2019-04-06T05:51:04.861Z,25.12
2019-04-06T05:51:36.124Z,27.93
2019-04-06T05:52:07.453Z,24.12
2019-04-06T05:52:38.712Z,27.70
2019-04-06T05:53:10.178Z,25.70
2019-04-06T05:53:41.407Z,24.60
2019-04-06T05:54:12.679Z,28.47
2019-04-06T05:54:44.076Z,30.23
2019-04-06T05:55:15.421Z,22.85
2019-04-06T05:57:37.253Z,25.95
2019-04-06T05:58:10.608Z,31.45
2019-04-06T05:58:44.351Z,32.42
2019-04-06T05:59:15.324Z,29.32
2019-04-06T05:59:46.520Z,31.30
2019-04-06T06:00:18.184Z,26.90
2019-04-06T06:00:52.051Z,26.35
2019-04-06T06:01:23.321Z,27.65
2019-04-06T06:01:54.663Z,27.32
2019-04-06T06:02:25.894Z,28.42
2019-04-06T06:02:57.119Z,31.20
2019-04-06T06:03:28.322Z,30.37
2019-04-06T06:04:01.003Z,34.67
2019-04-06T06:04:40.275Z,26.90
2019-04-06T06:05:14.034Z,25.97
2019-04-06T06:05:45.423Z,24.92
2019-04-06T06:06:19.298Z,30.72
2019-04-06T06:06:50.508Z,26.45
2019-04-06T06:07:21.771Z,24.20
2019-04-06T06:07:53.036Z,26.48
2019-04-06T06:08:27.370Z,25.60
2019-04-06T06:08:58.660Z,25.27
2019-04-06T06:09:29.898Z,23.22
2019-04-06T06:10:04.172Z,24.65
2019-04-06T06:10:35.474Z,24.60
2019-04-06T06:11:06.705Z,27.82
2019-04-06T06:11:39.968Z,25.10
2019-04-06T06:12:10.942Z,24.72
2019-04-06T06:12:42.253Z,27.13
2019-04-06T06:13:19.454Z,28.57
2019-04-06T06:13:52.714Z,28.42
2019-04-06T06:14:24.033Z,28.32
2019-04-06T06:14:55.326Z,30.88
2019-04-06T06:15:26.610Z,28.67
2019-04-06T06:15:57.822Z,32.48
2019-04-06T06:16:31.921Z,30.97
2019-04-06T06:17:03.300Z,34.20
2019-04-06T06:17:34.568Z,29.80
2019-04-06T06:18:05.811Z,30.37
2019-04-06T06:18:37.117Z,28.70
2019-04-06T06:19:08.486Z,30.52
2019-04-06T06:19:39.763Z,30.20
2019-04-06T06:20:10.962Z,26.45
2019-04-06T06:20:48.239Z,28.80
2019-04-06T06:21:18.064Z,26.35
2019-04-06T06:21:49.431Z,24.63
2019-04-06T06:22:20.717Z,27.98
2019-04-06T06:22:51.936Z,28.60
2019-04-06T06:23:23.198Z,30.65
2019-04-06T06:23:54.457Z,29.18
2019-04-06T06:24:25.784Z,32.55
2019-04-06T06:24:58.345Z,32.85
2019-04-06T06:25:31.254Z,32.17
2019-04-06T06:26:02.592Z,29.67
2019-04-06T06:26:33.921Z,26.55
2019-04-06T06:27:05.450Z,27.70
2019-04-06T06:27:37.755Z,24.02
2019-04-06T06:28:14.169Z,27.75
2019-04-06T06:28:43.397Z,26.20
2019-04-06T06:29:14.689Z,23.83
2019-04-06T06:29:52.630Z,27.55
2019-04-06T06:30:21.507Z,25.95
2019-04-06T06:30:52.745Z,23.00
2019-04-06T06:31:27.291Z,26.45
2019-04-06T06:31:58.561Z,22.90
2019-04-06T06:32:31.100Z,23.00
2019-04-06T06:33:02.892Z,27.30
2019-04-06T06:33:34.154Z,31.93
2019-04-06T06:34:05.419Z,26.10
2019-04-06T06:34:36.668Z,25.32
2019-04-06T06:35:08.018Z,27.32
2019-04-06T06:35:39.303Z,27.17
2019-04-06T06:36:10.718Z,28.87
2019-04-06T06:36:42.192Z,28.85
2019-04-06T06:37:13.534Z,30.48
2019-04-06T06:37:44.844Z,30.52
2019-04-06T06:38:16.265Z,29.02
2019-04-06T06:38:47.476Z,28.12
2019-04-06T06:39:18.852Z,27.45
2019-04-06T06:39:51.743Z,32.08
2019-04-06T06:40:23.253Z,29.85
2019-04-06T06:40:57.700Z,31.10
2019-04-06T06:41:28.904Z,27.37
2019-04-06T06:42:00.139Z,29.70
2019-04-06T06:42:31.377Z,29.60
2019-04-06T06:43:02.643Z,28.10
2019-04-06T06:43:33.865Z,27.37
2019-04-06T06:44:05.101Z,27.17
2019-04-06T06:44:36.310Z,28.50
2019-04-06T06:45:07.673Z,28.57
2019-04-06T06:45:39.077Z,29.00
2019-04-06T06:46:10.320Z,29.23
2019-04-06T06:46:41.553Z,29.07
2019-04-06T06:47:12.812Z,25.62
2019-04-06T06:47:44.302Z,26.35
2019-04-06T06:48:15.493Z,27.13
2019-04-06T06:48:46.737Z,26.02
2019-04-06T06:49:19.398Z,30.12